Fort Meade, MD

11:51 AM EDT on June 22, 2018 (GMT -0400)
Tipton

Weather History for KFME - January, 2015

Change the Weather History Date:

Thursday, January 1, 2015

  Actual Average (KBWI) Record (KBWI)
Temperature  
Mean Temperature 28 °F -  
Max Temperature 42 °F 43 °F 67 °F (2005)
Min Temperature 14 °F 27 °F -6 °F (1881)
Degree Days  
Heating Degree Days 37    
Moisture  
Dew Point 17 °F    
Average Humidity 72    
Maximum Humidity 93    
Minimum Humidity 31    
Precipitation  
Precipitation 0.00 in - - ()
Sea Level Pressure  
Sea Level Pressure 30.17 in    
Wind  
Wind Speed 3 mph (SW)    
Max Wind Speed 15 mph    
Max Gust Speed 22 mph    
Visibility 10 miles    
Events      
Averages and records for this station are not official NWS values.
T = Trace of Precipitation, MM = Missing Value Source: NWS Daily Summary

Daily Weather History Graph

Daily Weather History Graph

Search for Another Location

Airport or City:

Astronomy

Jan. 01, 2015 Rise Set
Actual Time 7:26 AM EST 4:55 PM EST
Civil Twilight 6:56 AM EST 5:25 PM EST
Nautical Twilight 6:22 AM EST 5:58 PM EST
Astronomical Twilight 5:50 AM EST 6:30 PM EST
Moon 2:25 PM EST (1/1) 3:53 AM EST (1/1)
Length of Visible Light 10h 28m
Length of Day
9h 28m
Waxing Gibbous, 88% of the Moon is Illuminated
Jan 1
Waxing Gibbous
Jan 4
Full
Jan 13
Last Quarter
Jan 20
New
Jan 26
First Quarter

Hourly Weather History & Observations

Time (EST) Temp. Windchill Dew Point Humidity Pressure Visibility Wind Dir Wind Speed Gust Speed Precip Events Conditions
12:06 AM 17.6 °F - 15.8 °F 93% 30.27 in 10.0 mi Calm Calm - N/A   Clear
12:27 AM 17.6 °F - 15.8 °F 93% 30.27 in 10.0 mi Calm Calm - N/A   Clear
12:48 AM 17.6 °F - 14.0 °F 86% 30.26 in 10.0 mi Calm Calm - N/A   Clear
1:06 AM 17.6 °F - 14.0 °F 86% 30.26 in 10.0 mi Calm Calm - N/A   Clear
1:27 AM 17.6 °F 12.3 °F 15.8 °F 93% 30.26 in 10.0 mi South 3.5 mph - N/A   Clear
1:48 AM 17.6 °F - 14.0 °F 86% 30.25 in 10.0 mi Calm Calm - N/A   Clear
2:06 AM 17.6 °F - 14.0 °F 86% 30.25 in 10.0 mi Calm Calm - N/A   Clear
2:27 AM 17.6 °F - 14.0 °F 86% 30.25 in 10.0 mi Calm Calm - N/A   Clear
2:48 AM 17.6 °F - 14.0 °F 86% 30.25 in 10.0 mi Calm Calm - N/A   Clear
3:06 AM 17.6 °F - 14.0 °F 86% 30.24 in 10.0 mi Calm Calm - N/A   Clear
3:27 AM 15.8 °F - 14.0 °F 93% 30.24 in 10.0 mi Calm Calm - N/A   Clear
3:48 AM 15.8 °F - 14.0 °F 93% 30.24 in 10.0 mi Calm Calm - N/A   Clear
4:06 AM 15.8 °F - 14.0 °F 93% 30.23 in 10.0 mi Calm Calm - N/A   Clear
4:27 AM 15.8 °F - 14.0 °F 93% 30.23 in 10.0 mi Calm Calm - N/A   Clear
4:48 AM 17.6 °F - 14.0 °F 86% 30.23 in 10.0 mi Calm Calm - N/A   Clear
5:06 AM 15.8 °F - 14.0 °F 93% 30.23 in 10.0 mi Calm Calm - N/A   Clear
5:27 AM 15.8 °F - 14.0 °F 93% 30.24 in 10.0 mi Calm Calm - N/A   Clear
5:48 AM 15.8 °F - 14.0 °F 93% 30.24 in 10.0 mi Calm Calm - N/A   Clear
6:06 AM 15.8 °F - 14.0 °F 93% 30.24 in 10.0 mi Calm Calm - N/A   Clear
6:27 AM 14.0 °F - 12.2 °F 93% 30.24 in 10.0 mi Calm Calm - N/A   Clear
6:48 AM 15.8 °F - 14.0 °F 93% 30.23 in 10.0 mi Calm Calm - N/A   Clear
7:06 AM 15.8 °F - 14.0 °F 93% 30.23 in 10.0 mi Calm Calm - N/A   Clear
7:27 AM 15.8 °F - 14.0 °F 93% 30.24 in 10.0 mi Calm Calm - N/A   Clear
7:48 AM 15.8 °F - 14.0 °F 93% 30.24 in 10.0 mi Calm Calm - N/A   Clear
8:09 AM 17.6 °F - 14.0 °F 86% 30.25 in 10.0 mi Calm Calm - N/A   Clear
8:27 AM 17.6 °F - 14.0 °F 86% 30.26 in 10.0 mi Calm Calm - N/A   Clear
8:48 AM 19.4 °F - 17.6 °F 93% 30.27 in 10.0 mi Calm Calm - N/A   Clear
9:09 AM 23.0 °F - 21.2 °F 93% 30.27 in 10.0 mi Calm Calm - N/A   Clear
9:27 AM 24.8 °F 19.1 °F 23.0 °F 93% 30.27 in 10.0 mi South 4.6 mph - N/A   Clear
9:48 AM 30.2 °F 25.4 °F 23.0 °F 75% 30.26 in 10.0 mi SW 4.6 mph - N/A   Clear
10:09 AM 32.0 °F 26.4 °F 21.2 °F 64% 30.26 in 10.0 mi WSW 5.8 mph - N/A   Clear
10:27 AM 33.8 °F 28.6 °F 19.4 °F 56% 30.25 in 10.0 mi SSW 5.8 mph - N/A   Clear
11:09 AM 35.6 °F 29.2 °F 15.8 °F 44% 30.22 in 10.0 mi WSW 8.1 mph - N/A   Clear
11:27 AM 37.4 °F 31.4 °F 17.6 °F 45% 30.20 in 10.0 mi SSW 8.1 mph - N/A   Clear
11:48 AM 37.4 °F 29.8 °F 15.8 °F 41% 30.19 in 10.0 mi SSW 11.5 mph - N/A   Clear
12:09 PM 39.2 °F 32.5 °F 15.8 °F 39% 30.17 in 10.0 mi WSW 10.4 mph 19.6 mph N/A   Clear
12:27 PM 41.0 °F 35.8 °F 15.8 °F 36% 30.15 in 10.0 mi WSW 8.1 mph - N/A   Clear
12:48 PM 41.0 °F 35.2 °F 14.0 °F 33% 30.14 in 10.0 mi SW 9.2 mph - N/A   Clear
1:09 PM 41.0 °F 35.2 °F 15.8 °F 36% 30.12 in 10.0 mi SW 9.2 mph - N/A   Clear
1:27 PM 41.0 °F 34.7 °F 14.0 °F 33% 30.12 in 10.0 mi SW 10.4 mph 16.1 mph N/A   Clear
1:48 PM 42.8 °F 35.4 °F 14.0 °F 31% 30.11 in 10.0 mi WSW 15.0 mph 21.9 mph N/A   Clear
2:09 PM 42.8 °F 38.6 °F 14.0 °F 31% 30.10 in 10.0 mi SW 6.9 mph 18.4 mph N/A   Clear
2:27 PM 42.8 °F 37.0 °F 14.0 °F 31% 30.09 in 10.0 mi SW 10.4 mph 19.6 mph N/A   Clear
2:48 PM 42.8 °F 38.0 °F 14.0 °F 31% 30.09 in 10.0 mi SW 8.1 mph 17.3 mph N/A   Clear
3:09 PM 42.8 °F 35.8 °F 14.0 °F 31% 30.09 in 10.0 mi SW 13.8 mph - N/A   Clear
3:27 PM 41.0 °F 35.8 °F 14.0 °F 33% 30.09 in 10.0 mi SW 8.1 mph - N/A   Clear
3:48 PM 41.0 °F 34.3 °F 14.0 °F 33% 30.10 in 10.0 mi SW 11.5 mph - N/A   Clear
4:09 PM 41.0 °F 36.4 °F 14.0 °F 33% 30.09 in 10.0 mi SW 6.9 mph - N/A   Clear
4:30 PM 39.2 °F 34.2 °F 15.8 °F 39% 30.10 in 10.0 mi SW 6.9 mph - N/A   Clear
4:48 PM 37.4 °F 32.8 °F 17.6 °F 45% 30.10 in 10.0 mi SSW 5.8 mph - N/A   Clear
5:09 PM 33.8 °F 29.6 °F 19.4 °F 56% 30.09 in 10.0 mi SSW 4.6 mph - N/A   Clear
5:30 PM 32.0 °F 27.5 °F 19.4 °F 60% 30.09 in 10.0 mi SSW 4.6 mph - N/A   Clear
5:48 PM 32.0 °F 28.7 °F 19.4 °F 60% 30.08 in 10.0 mi SSW 3.5 mph - N/A   Clear
6:09 PM 30.2 °F 25.4 °F 21.2 °F 69% 30.08 in 10.0 mi SSW 4.6 mph - N/A   Clear
6:30 PM 28.4 °F 23.3 °F 21.2 °F 74% 30.08 in 10.0 mi SSW 4.6 mph - N/A   Clear
6:48 PM 28.4 °F 24.6 °F 23.0 °F 80% 30.09 in 10.0 mi SSW 3.5 mph - N/A   Clear
7:09 PM 28.4 °F 23.3 °F 23.0 °F 80% 30.08 in 10.0 mi SSW 4.6 mph - N/A   Clear
7:30 PM 28.4 °F 23.3 °F 23.0 °F 80% 30.08 in 10.0 mi SSW 4.6 mph - N/A   Clear
7:48 PM 28.4 °F 23.3 °F 23.0 °F 80% 30.08 in 10.0 mi SSW 4.6 mph - N/A   Clear
8:09 PM 28.4 °F 23.3 °F 23.0 °F 80% 30.08 in 10.0 mi SSW 4.6 mph - N/A   Clear
8:30 PM 28.4 °F 23.3 °F 23.0 °F 80% 30.08 in 10.0 mi SSW 4.6 mph - N/A   Clear
8:48 PM 28.4 °F 24.6 °F 23.0 °F 80% 30.08 in 10.0 mi SW 3.5 mph - N/A   Clear
9:09 PM 26.6 °F 21.2 °F 21.2 °F 80% 30.08 in 10.0 mi SW 4.6 mph - N/A   Clear
9:30 PM 26.6 °F 20.0 °F 23.0 °F 86% 30.08 in 10.0 mi SW 5.8 mph - N/A   Clear
9:48 PM 28.4 °F 22.2 °F 23.0 °F 80% 30.09 in 10.0 mi SW 5.8 mph - N/A   Clear
10:09 PM 28.4 °F 23.3 °F 24.8 °F 86% 30.10 in 10.0 mi SW 4.6 mph - N/A   Clear
10:30 PM 28.4 °F 22.2 °F 24.8 °F 86% 30.11 in 10.0 mi SSW 5.8 mph - N/A   Clear
10:48 PM 28.4 °F 23.3 °F 23.0 °F 80% 30.11 in 10.0 mi SW 4.6 mph - N/A   Clear
11:09 PM 26.6 °F - 23.0 °F 86% 30.11 in 10.0 mi Calm Calm - N/A   Clear
11:30 PM 28.4 °F - 23.0 °F 80% 30.12 in 10.0 mi Calm Calm - N/A   Clear
11:48 PM 26.6 °F - 21.2 °F 80% 30.13 in 10.0 mi Calm Calm - N/A   Clear